Panama City Beach, FL (32407)

9:13 AM CDT on April 26, 2017 (GMT -0500)
Bayside West Bay | | Change Station

Elev 5 ft 30.19 °N, 85.75 °W | Updated 3 minutes ago

Clear
Clear
74.0 °F
Feels Like 77 °F
N
6.0
Wind Variable Wind from SE
Gusts 6.0 mph

Today
High -- | Low -- °F
--% Chance of Precip.
Yesterday
High -- | Low -- °F
Precip. -- in
Pressure 29.88 in
Visibility 10.0 miles
Clouds Few 4000 ft
Heat Index 77 °F
Dew Point 56 °F
Humidity 54%
Rainfall 0.00 in
Snow Depth Not available.
6:04 AM 7:17 PM
New Moon, 0% visible
METAR KECP 261353Z 16013KT 10SM FEW040 23/14 A2984 RMK AO2 SLP117 T02330139 $
Pressure 29.88 in
Visibility 10.0 miles
Clouds Few 4000 ft
Heat Index 77 °F
Dew Point 56 °F
Humidity 54%
Rainfall 0.00 in
Snow Depth Not available.
6:04 AM 7:17 PM
New Moon, 0% visible
METAR KECP 261353Z 16013KT 10SM FEW040 23/14 A2984 RMK AO2 SLP117 T02330139 $

Get Your Daily Forecast Email!

Thanks for signing up!

Be on the lookout for a verification email in your inbox.

You'll start receiving severe weather alerts in your inbox..

×

10-Day Weather Forecast

Almanac

Astronomy

Apr. 26, 2017 Rise Set
Actual Time
Civil Twilight
Nautical Twilight
Astronomical Twilight
Moon
Length of Visible Light
Length of Day
Tomorrow will be .
, % of the Moon is Illuminated

Today's Extremes

State Highs State Lows

Community

WunderPhotos

WunderBlog® & News

Nearby

Air Quality

  Air Quality AQ Index Pollutant
Not available.

Snow Depth

Station Depth Elevation

Earthquake Activity

City Distance Mag. Time & Date
Minimum magnitude displayed is 2.5.

Coastal Water Temperatures

Place Temperature

Stations

Nearby Weather Stations

Station Location Temp. Windchill Dew Point Humidity Wind Precip. Elev Updated Type
                   

Watches & Warnings

Coastal Hazard Statement
Issued: 2:54 AM CDT Apr. 26, 2017 – National Weather Service

... High rip current risk in effect from 8 am EDT /7 am CDT/ this
morning through late tonight...

The National Weather Service in Tallahassee has issued a high rip
current risk, which is in effect from 8 am EDT /7 am CDT/ this
morning through late tonight.

* Timing... through tonight and possibly through Thursday

* impacts... increased chance for dangerous rip currents

Precautionary/preparedness actions...

There is a high risk of rip currents.

Rip currents are powerful channels of water flowing quickly away
from shore. They occur most often at low spots or breaks in The
Sandbar... as well as in the vicinity of jetties and piers.

Heed the advice of lifeguards... beach patrol flags... and signs
before entering the water. If caught in a rip current do not swim
against it. Face the shore and signal for help. Float or tread
water until the current ends or until rescued.



Moore